sensor_id;sensor_type;location;lat;lon;timestamp;P1;durP1;ratioP1;P2;durP2;ratioP2
13933;SDS011;7039;52.168;9.866;2023-05-20T00:00:58;4.93;;;2.00;;
13933;SDS011;7039;52.168;9.866;2023-05-20T00:03:28;4.17;;;2.43;;
13933;SDS011;7039;52.168;9.866;2023-05-20T00:05:55;5.50;;;2.13;;
13933;SDS011;7039;52.168;9.866;2023-05-20T00:08:38;3.80;;;2.03;;
13933;SDS011;7039;52.168;9.866;2023-05-20T00:11:06;5.00;;;2.07;;
13933;SDS011;7039;52.168;9.866;2023-05-20T00:13:33;5.80;;;2.53;;
13933;SDS011;7039;52.168;9.866;2023-05-20T00:16:01;3.77;;;2.00;;
13933;SDS011;7039;52.168;9.866;2023-05-20T00:18:30;3.80;;;2.23;;
13933;SDS011;7039;52.168;9.866;2023-05-20T00:20:58;3.63;;;1.97;;
13933;SDS011;7039;52.168;9.866;2023-05-20T00:23:25;3.00;;;2.40;;
13933;SDS011;7039;52.168;9.866;2023-05-20T00:25:53;5.13;;;2.30;;
13933;SDS011;7039;52.168;9.866;2023-05-20T00:28:20;4.40;;;2.30;;
13933;SDS011;7039;52.168;9.866;2023-05-20T00:30:48;5.37;;;2.13;;
13933;SDS011;7039;52.168;9.866;2023-05-20T00:33:17;5.27;;;1.93;;
13933;SDS011;7039;52.168;9.866;2023-05-20T00:35:47;3.53;;;2.40;;
13933;SDS011;7039;52.168;9.866;2023-05-20T00:38:18;2.83;;;2.13;;
13933;SDS011;7039;52.168;9.866;2023-05-20T00:40:48;3.60;;;1.80;;
13933;SDS011;7039;52.168;9.866;2023-05-20T00:43:16;4.60;;;2.53;;
13933;SDS011;7039;52.168;9.866;2023-05-20T00:45:44;4.60;;;2.00;;
13933;SDS011;7039;52.168;9.866;2023-05-20T00:48:11;3.47;;;2.50;;
13933;SDS011;7039;52.168;9.866;2023-05-20T00:50:38;5.87;;;2.60;;
13933;SDS011;7039;52.168;9.866;2023-05-20T00:53:06;2.93;;;2.37;;
13933;SDS011;7039;52.168;9.866;2023-05-20T00:55:34;3.80;;;2.20;;
13933;SDS011;7039;52.168;9.866;2023-05-20T00:58:00;4.50;;;2.30;;
13933;SDS011;7039;52.168;9.866;2023-05-20T01:00:27;4.77;;;2.50;;
13933;SDS011;7039;52.168;9.866;2023-05-20T01:02:54;5.27;;;2.33;;
13933;SDS011;7039;52.168;9.866;2023-05-20T01:05:20;3.73;;;2.37;;
13933;SDS011;7039;52.168;9.866;2023-05-20T01:07:47;5.57;;;2.30;;
13933;SDS011;7039;52.168;9.866;2023-05-20T01:10:15;3.20;;;2.27;;
13933;SDS011;7039;52.168;9.866;2023-05-20T01:12:42;3.10;;;2.40;;
13933;SDS011;7039;52.168;9.866;2023-05-20T01:15:13;4.00;;;2.30;;
13933;SDS011;7039;52.168;9.866;2023-05-20T01:17:43;4.17;;;2.60;;
13933;SDS011;7039;52.168;9.866;2023-05-20T01:20:11;3.40;;;2.70;;
13933;SDS011;7039;52.168;9.866;2023-05-20T01:22:46;3.23;;;2.30;;
13933;SDS011;7039;52.168;9.866;2023-05-20T01:25:13;3.10;;;2.17;;
13933;SDS011;7039;52.168;9.866;2023-05-20T01:27:40;7.30;;;2.73;;
13933;SDS011;7039;52.168;9.866;2023-05-20T01:30:07;5.40;;;2.17;;
13933;SDS011;7039;52.168;9.866;2023-05-20T01:32:35;8.77;;;2.47;;
13933;SDS011;7039;52.168;9.866;2023-05-20T01:35:04;7.40;;;2.80;;
13933;SDS011;7039;52.168;9.866;2023-05-20T01:37:32;4.03;;;2.43;;
13933;SDS011;7039;52.168;9.866;2023-05-20T01:40:04;5.03;;;2.27;;
13933;SDS011;7039;52.168;9.866;2023-05-20T01:42:33;3.43;;;2.23;;
13933;SDS011;7039;52.168;9.866;2023-05-20T01:45:01;6.77;;;2.33;;
13933;SDS011;7039;52.168;9.866;2023-05-20T01:47:28;2.60;;;2.20;;
13933;SDS011;7039;52.168;9.866;2023-05-20T01:49:55;8.90;;;2.37;;
13933;SDS011;7039;52.168;9.866;2023-05-20T01:52:21;3.17;;;2.33;;
13933;SDS011;7039;52.168;9.866;2023-05-20T01:54:48;6.77;;;2.23;;
13933;SDS011;7039;52.168;9.866;2023-05-20T01:57:17;4.47;;;3.13;;
13933;SDS011;7039;52.168;9.866;2023-05-20T01:59:44;4.23;;;2.53;;
13933;SDS011;7039;52.168;9.866;2023-05-20T02:02:10;3.57;;;2.60;;
13933;SDS011;7039;52.168;9.866;2023-05-20T02:04:37;3.73;;;2.50;;
13933;SDS011;7039;52.168;9.866;2023-05-20T02:07:03;7.33;;;2.50;;
13933;SDS011;7039;52.168;9.866;2023-05-20T02:09:30;8.90;;;3.23;;
13933;SDS011;7039;52.168;9.866;2023-05-20T02:11:56;4.17;;;2.50;;
13933;SDS011;7039;52.168;9.866;2023-05-20T02:14:24;2.73;;;2.27;;
13933;SDS011;7039;52.168;9.866;2023-05-20T02:16:51;4.83;;;2.30;;
13933;SDS011;7039;52.168;9.866;2023-05-20T02:19:17;6.30;;;2.60;;
13933;SDS011;7039;52.168;9.866;2023-05-20T02:21:47;2.87;;;2.27;;
13933;SDS011;7039;52.168;9.866;2023-05-20T02:24:14;3.33;;;2.43;;
13933;SDS011;7039;52.168;9.866;2023-05-20T02:26:41;4.23;;;2.30;;
13933;SDS011;7039;52.168;9.866;2023-05-20T02:29:09;4.60;;;2.40;;
13933;SDS011;7039;52.168;9.866;2023-05-20T02:31:37;7.17;;;2.47;;
13933;SDS011;7039;52.168;9.866;2023-05-20T02:34:04;3.60;;;2.40;;
13933;SDS011;7039;52.168;9.866;2023-05-20T02:36:30;4.20;;;2.53;;
13933;SDS011;7039;52.168;9.866;2023-05-20T02:38:57;3.50;;;2.43;;
13933;SDS011;7039;52.168;9.866;2023-05-20T02:41:25;4.23;;;2.67;;
13933;SDS011;7039;52.168;9.866;2023-05-20T02:43:51;4.73;;;3.00;;
13933;SDS011;7039;52.168;9.866;2023-05-20T02:46:18;3.60;;;2.37;;
13933;SDS011;7039;52.168;9.866;2023-05-20T02:48:46;4.57;;;2.60;;
13933;SDS011;7039;52.168;9.866;2023-05-20T02:51:12;4.57;;;2.70;;
13933;SDS011;7039;52.168;9.866;2023-05-20T02:53:39;3.73;;;2.20;;
13933;SDS011;7039;52.168;9.866;2023-05-20T02:56:05;3.87;;;2.67;;
13933;SDS011;7039;52.168;9.866;2023-05-20T02:58:33;4.00;;;2.70;;
13933;SDS011;7039;52.168;9.866;2023-05-20T03:00:59;4.17;;;2.57;;
13933;SDS011;7039;52.168;9.866;2023-05-20T03:03:26;3.60;;;2.60;;
13933;SDS011;7039;52.168;9.866;2023-05-20T03:05:53;8.60;;;2.80;;
13933;SDS011;7039;52.168;9.866;2023-05-20T03:08:21;3.83;;;2.80;;
13933;SDS011;7039;52.168;9.866;2023-05-20T03:10:48;3.90;;;2.90;;
13933;SDS011;7039;52.168;9.866;2023-05-20T03:13:14;5.50;;;2.57;;
13933;SDS011;7039;52.168;9.866;2023-05-20T03:15:41;3.30;;;2.30;;
13933;SDS011;7039;52.168;9.866;2023-05-20T03:18:09;6.60;;;3.27;;
13933;SDS011;7039;52.168;9.866;2023-05-20T03:20:36;5.13;;;2.53;;
13933;SDS011;7039;52.168;9.866;2023-05-20T03:23:04;4.53;;;2.80;;
13933;SDS011;7039;52.168;9.866;2023-05-20T03:25:31;4.83;;;2.70;;
13933;SDS011;7039;52.168;9.866;2023-05-20T03:27:58;3.70;;;2.60;;
13933;SDS011;7039;52.168;9.866;2023-05-20T03:30:24;4.67;;;2.77;;
13933;SDS011;7039;52.168;9.866;2023-05-20T03:32:51;4.07;;;2.57;;
13933;SDS011;7039;52.168;9.866;2023-05-20T03:35:18;4.20;;;2.70;;
13933;SDS011;7039;52.168;9.866;2023-05-20T03:37:44;5.50;;;2.80;;
13933;SDS011;7039;52.168;9.866;2023-05-20T03:40:12;4.20;;;2.60;;
13933;SDS011;7039;52.168;9.866;2023-05-20T03:42:39;4.20;;;2.97;;
13933;SDS011;7039;52.168;9.866;2023-05-20T03:45:06;7.37;;;2.90;;
13933;SDS011;7039;52.168;9.866;2023-05-20T03:47:33;5.60;;;2.90;;
13933;SDS011;7039;52.168;9.866;2023-05-20T03:49:59;8.10;;;2.90;;
13933;SDS011;7039;52.168;9.866;2023-05-20T03:52:26;5.40;;;2.80;;
13933;SDS011;7039;52.168;9.866;2023-05-20T03:54:52;7.93;;;2.97;;
13933;SDS011;7039;52.168;9.866;2023-05-20T03:57:20;12.53;;;3.13;;
13933;SDS011;7039;52.168;9.866;2023-05-20T03:59:46;7.63;;;2.60;;
13933;SDS011;7039;52.168;9.866;2023-05-20T04:02:13;5.73;;;2.90;;
13933;SDS011;7039;52.168;9.866;2023-05-20T04:04:40;5.63;;;2.73;;
13933;SDS011;7039;52.168;9.866;2023-05-20T04:07:07;5.37;;;3.10;;
13933;SDS011;7039;52.168;9.866;2023-05-20T04:09:33;3.83;;;2.90;;
13933;SDS011;7039;52.168;9.866;2023-05-20T04:12:00;7.03;;;2.77;;
13933;SDS011;7039;52.168;9.866;2023-05-20T04:14:28;4.20;;;2.77;;
13933;SDS011;7039;52.168;9.866;2023-05-20T04:16:55;4.90;;;3.10;;
13933;SDS011;7039;52.168;9.866;2023-05-20T04:19:21;6.93;;;2.60;;
13933;SDS011;7039;52.168;9.866;2023-05-20T04:21:52;6.93;;;3.23;;
13933;SDS011;7039;52.168;9.866;2023-05-20T04:24:19;5.17;;;2.90;;
13933;SDS011;7039;52.168;9.866;2023-05-20T04:26:49;6.47;;;2.97;;
13933;SDS011;7039;52.168;9.866;2023-05-20T04:29:15;7.47;;;2.90;;
13933;SDS011;7039;52.168;9.866;2023-05-20T04:31:44;5.30;;;2.63;;
13933;SDS011;7039;52.168;9.866;2023-05-20T04:34:10;3.43;;;2.70;;
13933;SDS011;7039;52.168;9.866;2023-05-20T04:36:37;11.67;;;3.40;;
13933;SDS011;7039;52.168;9.866;2023-05-20T04:39:03;3.40;;;2.57;;
13933;SDS011;7039;52.168;9.866;2023-05-20T04:41:31;4.43;;;2.57;;
13933;SDS011;7039;52.168;9.866;2023-05-20T04:43:59;3.03;;;2.73;;
13933;SDS011;7039;52.168;9.866;2023-05-20T04:46:26;5.37;;;3.50;;
13933;SDS011;7039;52.168;9.866;2023-05-20T04:48:54;6.10;;;2.93;;
13933;SDS011;7039;52.168;9.866;2023-05-20T04:51:20;6.40;;;3.00;;
13933;SDS011;7039;52.168;9.866;2023-05-20T04:53:47;3.57;;;2.87;;
13933;SDS011;7039;52.168;9.866;2023-05-20T04:56:14;4.07;;;2.67;;
13933;SDS011;7039;52.168;9.866;2023-05-20T04:58:41;5.03;;;3.00;;
13933;SDS011;7039;52.168;9.866;2023-05-20T05:01:07;4.57;;;2.73;;
13933;SDS011;7039;52.168;9.866;2023-05-20T05:03:34;4.73;;;2.70;;
13933;SDS011;7039;52.168;9.866;2023-05-20T05:06:02;4.07;;;3.00;;
13933;SDS011;7039;52.168;9.866;2023-05-20T05:08:28;3.47;;;3.07;;
13933;SDS011;7039;52.168;9.866;2023-05-20T05:10:55;4.80;;;3.00;;
13933;SDS011;7039;52.168;9.866;2023-05-20T05:13:21;4.83;;;2.70;;
13933;SDS011;7039;52.168;9.866;2023-05-20T05:15:47;4.90;;;2.97;;
13933;SDS011;7039;52.168;9.866;2023-05-20T05:18:14;4.03;;;3.10;;
13933;SDS011;7039;52.168;9.866;2023-05-20T05:20:42;4.63;;;2.70;;
13933;SDS011;7039;52.168;9.866;2023-05-20T05:23:10;4.83;;;3.40;;
13933;SDS011;7039;52.168;9.866;2023-05-20T05:25:36;6.23;;;3.50;;
13933;SDS011;7039;52.168;9.866;2023-05-20T05:28:03;4.83;;;3.17;;
13933;SDS011;7039;52.168;9.866;2023-05-20T05:30:29;4.30;;;2.73;;
13933;SDS011;7039;52.168;9.866;2023-05-20T05:32:56;5.17;;;2.77;;
13933;SDS011;7039;52.168;9.866;2023-05-20T05:35:22;4.03;;;3.00;;
13933;SDS011;7039;52.168;9.866;2023-05-20T05:37:49;7.10;;;3.20;;
13933;SDS011;7039;52.168;9.866;2023-05-20T05:40:17;6.10;;;3.50;;
13933;SDS011;7039;52.168;9.866;2023-05-20T05:42:43;10.43;;;3.10;;
13933;SDS011;7039;52.168;9.866;2023-05-20T05:45:10;4.60;;;3.43;;
13933;SDS011;7039;52.168;9.866;2023-05-20T05:47:36;5.83;;;3.53;;
13933;SDS011;7039;52.168;9.866;2023-05-20T05:50:03;5.23;;;3.27;;
13933;SDS011;7039;52.168;9.866;2023-05-20T05:52:30;6.60;;;3.70;;
13933;SDS011;7039;52.168;9.866;2023-05-20T05:54:56;4.30;;;3.40;;
13933;SDS011;7039;52.168;9.866;2023-05-20T05:57:24;4.63;;;3.13;;
13933;SDS011;7039;52.168;9.866;2023-05-20T05:59:51;5.07;;;3.50;;
13933;SDS011;7039;52.168;9.866;2023-05-20T06:02:17;6.00;;;3.50;;
13933;SDS011;7039;52.168;9.866;2023-05-20T06:04:43;7.27;;;3.60;;
13933;SDS011;7039;52.168;9.866;2023-05-20T06:07:10;5.57;;;3.87;;
13933;SDS011;7039;52.168;9.866;2023-05-20T06:09:37;6.33;;;3.80;;
13933;SDS011;7039;52.168;9.866;2023-05-20T06:12:03;5.37;;;3.93;;
13933;SDS011;7039;52.168;9.866;2023-05-20T06:14:31;8.13;;;3.97;;
13933;SDS011;7039;52.168;9.866;2023-05-20T06:16:58;7.90;;;4.60;;
13933;SDS011;7039;52.168;9.866;2023-05-20T06:19:24;6.93;;;3.93;;
13933;SDS011;7039;52.168;9.866;2023-05-20T06:21:51;7.07;;;4.10;;
13933;SDS011;7039;52.168;9.866;2023-05-20T06:24:17;7.60;;;4.70;;
13933;SDS011;7039;52.168;9.866;2023-05-20T06:26:44;7.73;;;4.80;;
13933;SDS011;7039;52.168;9.866;2023-05-20T06:29:11;6.40;;;5.03;;
13933;SDS011;7039;52.168;9.866;2023-05-20T06:31:38;6.53;;;4.50;;
13933;SDS011;7039;52.168;9.866;2023-05-20T06:34:05;5.27;;;4.27;;
13933;SDS011;7039;52.168;9.866;2023-05-20T06:36:31;9.30;;;5.20;;
13933;SDS011;7039;52.168;9.866;2023-05-20T06:38:58;7.47;;;4.90;;
13933;SDS011;7039;52.168;9.866;2023-05-20T06:41:24;5.80;;;4.67;;
13933;SDS011;7039;52.168;9.866;2023-05-20T06:43:51;10.73;;;4.60;;
13933;SDS011;7039;52.168;9.866;2023-05-20T06:46:20;7.67;;;4.60;;
13933;SDS011;7039;52.168;9.866;2023-05-20T06:48:50;7.83;;;4.60;;
13933;SDS011;7039;52.168;9.866;2023-05-20T06:51:16;6.97;;;4.83;;
13933;SDS011;7039;52.168;9.866;2023-05-20T06:53:43;7.27;;;4.37;;
13933;SDS011;7039;52.168;9.866;2023-05-20T06:56:10;9.17;;;4.93;;
13933;SDS011;7039;52.168;9.866;2023-05-20T06:58:37;9.27;;;4.67;;
13933;SDS011;7039;52.168;9.866;2023-05-20T07:01:03;9.67;;;5.43;;
13933;SDS011;7039;52.168;9.866;2023-05-20T07:03:30;6.20;;;4.97;;
13933;SDS011;7039;52.168;9.866;2023-05-20T07:05:58;5.90;;;4.63;;
13933;SDS011;7039;52.168;9.866;2023-05-20T07:08:25;10.73;;;5.03;;
13933;SDS011;7039;52.168;9.866;2023-05-20T07:10:53;7.47;;;5.17;;
13933;SDS011;7039;52.168;9.866;2023-05-20T07:13:20;7.13;;;5.07;;
13933;SDS011;7039;52.168;9.866;2023-05-20T07:15:50;7.07;;;5.07;;
13933;SDS011;7039;52.168;9.866;2023-05-20T07:18:16;6.90;;;5.30;;
13933;SDS011;7039;52.168;9.866;2023-05-20T07:20:43;10.53;;;4.77;;
13933;SDS011;7039;52.168;9.866;2023-05-20T07:23:11;8.63;;;5.10;;
13933;SDS011;7039;52.168;9.866;2023-05-20T07:25:38;7.27;;;4.87;;
13933;SDS011;7039;52.168;9.866;2023-05-20T07:28:04;9.33;;;5.23;;
13933;SDS011;7039;52.168;9.866;2023-05-20T07:30:31;9.77;;;5.57;;
13933;SDS011;7039;52.168;9.866;2023-05-20T07:32:57;7.10;;;4.90;;
13933;SDS011;7039;52.168;9.866;2023-05-20T07:35:24;11.17;;;5.60;;
13933;SDS011;7039;52.168;9.866;2023-05-20T07:37:50;10.10;;;5.10;;
13933;SDS011;7039;52.168;9.866;2023-05-20T07:40:18;8.00;;;5.63;;
13933;SDS011;7039;52.168;9.866;2023-05-20T07:42:45;9.30;;;5.43;;
13933;SDS011;7039;52.168;9.866;2023-05-20T07:45:12;7.17;;;5.40;;
13933;SDS011;7039;52.168;9.866;2023-05-20T07:47:38;8.60;;;5.03;;
13933;SDS011;7039;52.168;9.866;2023-05-20T07:50:05;8.43;;;5.43;;
13933;SDS011;7039;52.168;9.866;2023-05-20T07:52:32;8.80;;;5.17;;
13933;SDS011;7039;52.168;9.866;2023-05-20T07:54:58;9.00;;;5.33;;
13933;SDS011;7039;52.168;9.866;2023-05-20T07:57:26;6.37;;;4.97;;
13933;SDS011;7039;52.168;9.866;2023-05-20T07:59:53;11.70;;;6.50;;
13933;SDS011;7039;52.168;9.866;2023-05-20T08:02:19;7.57;;;5.17;;
13933;SDS011;7039;52.168;9.866;2023-05-20T08:04:46;7.57;;;5.13;;
13933;SDS011;7039;52.168;9.866;2023-05-20T08:07:12;8.60;;;6.43;;
13933;SDS011;7039;52.168;9.866;2023-05-20T08:09:39;5.93;;;4.90;;
13933;SDS011;7039;52.168;9.866;2023-05-20T08:12:05;10.47;;;5.97;;
13933;SDS011;7039;52.168;9.866;2023-05-20T08:14:33;10.33;;;5.40;;
13933;SDS011;7039;52.168;9.866;2023-05-20T08:17:00;5.60;;;5.00;;
13933;SDS011;7039;52.168;9.866;2023-05-20T08:19:26;7.20;;;5.47;;
13933;SDS011;7039;52.168;9.866;2023-05-20T08:21:53;9.37;;;5.70;;
13933;SDS011;7039;52.168;9.866;2023-05-20T08:24:19;9.23;;;6.30;;
13933;SDS011;7039;52.168;9.866;2023-05-20T08:26:47;9.83;;;5.50;;
13933;SDS011;7039;52.168;9.866;2023-05-20T08:29:17;18.07;;;7.10;;
13933;SDS011;7039;52.168;9.866;2023-05-20T08:31:44;17.20;;;7.70;;
13933;SDS011;7039;52.168;9.866;2023-05-20T08:34:11;11.23;;;6.77;;
13933;SDS011;7039;52.168;9.866;2023-05-20T08:36:38;37.30;;;12.30;;
13933;SDS011;7039;52.168;9.866;2023-05-20T08:39:05;8.73;;;6.77;;
13933;SDS011;7039;52.168;9.866;2023-05-20T08:41:31;10.40;;;6.50;;
13933;SDS011;7039;52.168;9.866;2023-05-20T08:43:58;11.80;;;6.77;;
13933;SDS011;7039;52.168;9.866;2023-05-20T08:46:26;9.80;;;6.67;;
13933;SDS011;7039;52.168;9.866;2023-05-20T08:48:54;10.27;;;7.47;;
13933;SDS011;7039;52.168;9.866;2023-05-20T08:51:21;13.67;;;7.33;;
13933;SDS011;7039;52.168;9.866;2023-05-20T08:53:49;13.73;;;7.50;;
13933;SDS011;7039;52.168;9.866;2023-05-20T08:56:16;11.67;;;7.40;;
13933;SDS011;7039;52.168;9.866;2023-05-20T08:58:43;16.57;;;8.93;;
13933;SDS011;7039;52.168;9.866;2023-05-20T09:01:11;9.93;;;7.63;;
13933;SDS011;7039;52.168;9.866;2023-05-20T09:03:37;20.97;;;7.57;;
13933;SDS011;7039;52.168;9.866;2023-05-20T09:06:06;9.63;;;6.97;;
13933;SDS011;7039;52.168;9.866;2023-05-20T09:08:34;10.57;;;6.53;;
13933;SDS011;7039;52.168;9.866;2023-05-20T09:11:01;10.87;;;7.03;;
13933;SDS011;7039;52.168;9.866;2023-05-20T09:13:28;11.80;;;6.13;;
13933;SDS011;7039;52.168;9.866;2023-05-20T09:15:56;8.50;;;6.37;;
13933;SDS011;7039;52.168;9.866;2023-05-20T09:18:24;8.00;;;6.27;;
13933;SDS011;7039;52.168;9.866;2023-05-20T09:20:51;9.67;;;6.60;;
13933;SDS011;7039;52.168;9.866;2023-05-20T09:23:19;12.73;;;6.67;;
13933;SDS011;7039;52.168;9.866;2023-05-20T09:25:48;11.27;;;6.53;;
13933;SDS011;7039;52.168;9.866;2023-05-20T09:28:15;7.50;;;5.90;;
13933;SDS011;7039;52.168;9.866;2023-05-20T09:30:44;8.63;;;5.73;;
13933;SDS011;7039;52.168;9.866;2023-05-20T09:33:11;9.43;;;5.93;;
13933;SDS011;7039;52.168;9.866;2023-05-20T09:35:37;7.73;;;5.73;;
13933;SDS011;7039;52.168;9.866;2023-05-20T09:38:04;7.73;;;5.50;;
13933;SDS011;7039;52.168;9.866;2023-05-20T09:40:33;12.60;;;5.70;;
13933;SDS011;7039;52.168;9.866;2023-05-20T09:43:02;10.27;;;5.57;;
13933;SDS011;7039;52.168;9.866;2023-05-20T09:45:29;9.43;;;5.37;;
13933;SDS011;7039;52.168;9.866;2023-05-20T09:47:56;8.40;;;5.57;;
13933;SDS011;7039;52.168;9.866;2023-05-20T09:50:23;9.70;;;4.43;;
13933;SDS011;7039;52.168;9.866;2023-05-20T09:52:51;6.00;;;5.13;;
13933;SDS011;7039;52.168;9.866;2023-05-20T09:55:20;5.83;;;4.67;;
13933;SDS011;7039;52.168;9.866;2023-05-20T09:57:49;6.57;;;4.90;;
13933;SDS011;7039;52.168;9.866;2023-05-20T10:00:16;6.37;;;4.97;;
13933;SDS011;7039;52.168;9.866;2023-05-20T10:02:43;8.23;;;5.20;;
13933;SDS011;7039;52.168;9.866;2023-05-20T10:05:15;9.60;;;5.10;;
13933;SDS011;7039;52.168;9.866;2023-05-20T10:10:46;7.70;;;5.20;;
13933;SDS011;7039;52.168;9.866;2023-05-20T10:13:22;7.20;;;4.97;;
13933;SDS011;7039;52.168;9.866;2023-05-20T10:16:03;6.50;;;4.40;;
13933;SDS011;7039;52.168;9.866;2023-05-20T10:18:40;7.57;;;4.60;;
13933;SDS011;7039;52.168;9.866;2023-05-20T10:21:16;6.10;;;5.03;;
13933;SDS011;7039;52.168;9.866;2023-05-20T10:23:43;6.47;;;4.10;;
13933;SDS011;7039;52.168;9.866;2023-05-20T10:26:10;9.00;;;4.67;;
13933;SDS011;7039;52.168;9.866;2023-05-20T10:28:39;6.73;;;4.40;;
13933;SDS011;7039;52.168;9.866;2023-05-20T10:31:13;10.50;;;4.63;;
13933;SDS011;7039;52.168;9.866;2023-05-20T10:33:41;4.50;;;3.77;;
13933;SDS011;7039;52.168;9.866;2023-05-20T10:36:09;5.30;;;4.27;;
13933;SDS011;7039;52.168;9.866;2023-05-20T10:38:48;6.43;;;4.27;;
13933;SDS011;7039;52.168;9.866;2023-05-20T10:41:19;5.50;;;4.00;;
13933;SDS011;7039;52.168;9.866;2023-05-20T10:43:48;5.03;;;3.60;;
13933;SDS011;7039;52.168;9.866;2023-05-20T10:46:24;5.70;;;4.27;;
13933;SDS011;7039;52.168;9.866;2023-05-20T10:48:51;5.77;;;3.97;;
13933;SDS011;7039;52.168;9.866;2023-05-20T10:51:17;7.67;;;4.23;;
13933;SDS011;7039;52.168;9.866;2023-05-20T10:53:45;5.00;;;3.83;;
13933;SDS011;7039;52.168;9.866;2023-05-20T10:56:15;6.03;;;4.30;;
13933;SDS011;7039;52.168;9.866;2023-05-20T10:58:42;5.90;;;5.07;;
13933;SDS011;7039;52.168;9.866;2023-05-20T11:01:11;6.57;;;4.53;;
13933;SDS011;7039;52.168;9.866;2023-05-20T11:03:38;8.23;;;4.57;;
13933;SDS011;7039;52.168;9.866;2023-05-20T11:06:11;7.47;;;4.50;;
13933;SDS011;7039;52.168;9.866;2023-05-20T11:08:39;6.07;;;4.30;;
13933;SDS011;7039;52.168;9.866;2023-05-20T11:11:06;6.33;;;4.23;;
13933;SDS011;7039;52.168;9.866;2023-05-20T11:13:34;6.37;;;4.60;;
13933;SDS011;7039;52.168;9.866;2023-05-20T11:16:00;11.47;;;4.63;;
13933;SDS011;7039;52.168;9.866;2023-05-20T11:18:30;7.93;;;5.00;;
13933;SDS011;7039;52.168;9.866;2023-05-20T11:20:56;4.97;;;4.23;;
13933;SDS011;7039;52.168;9.866;2023-05-20T11:23:23;10.27;;;4.50;;
13933;SDS011;7039;52.168;9.866;2023-05-20T11:25:51;5.27;;;4.37;;
13933;SDS011;7039;52.168;9.866;2023-05-20T11:28:18;6.63;;;4.60;;
13933;SDS011;7039;52.168;9.866;2023-05-20T11:30:45;6.37;;;4.27;;
13933;SDS011;7039;52.168;9.866;2023-05-20T11:33:13;8.33;;;4.57;;
13933;SDS011;7039;52.168;9.866;2023-05-20T11:35:44;5.47;;;4.57;;
13933;SDS011;7039;52.168;9.866;2023-05-20T11:38:12;7.27;;;4.60;;
13933;SDS011;7039;52.168;9.866;2023-05-20T11:40:41;6.20;;;4.20;;
13933;SDS011;7039;52.168;9.866;2023-05-20T11:43:09;7.23;;;4.53;;
13933;SDS011;7039;52.168;9.866;2023-05-20T11:45:37;6.37;;;3.97;;
13933;SDS011;7039;52.168;9.866;2023-05-20T11:48:05;8.53;;;4.60;;
13933;SDS011;7039;52.168;9.866;2023-05-20T11:50:33;5.70;;;4.60;;
13933;SDS011;7039;52.168;9.866;2023-05-20T11:53:02;5.67;;;4.97;;
13933;SDS011;7039;52.168;9.866;2023-05-20T11:55:30;5.33;;;4.43;;
13933;SDS011;7039;52.168;9.866;2023-05-20T11:57:57;5.57;;;4.50;;
13933;SDS011;7039;52.168;9.866;2023-05-20T12:00:24;9.63;;;5.03;;
13933;SDS011;7039;52.168;9.866;2023-05-20T12:02:50;10.90;;;5.67;;
13933;SDS011;7039;52.168;9.866;2023-05-20T12:05:17;7.07;;;5.47;;
13933;SDS011;7039;52.168;9.866;2023-05-20T12:07:44;5.90;;;4.67;;
13933;SDS011;7039;52.168;9.866;2023-05-20T12:10:12;7.10;;;4.67;;
13933;SDS011;7039;52.168;9.866;2023-05-20T12:12:38;8.10;;;5.13;;
13933;SDS011;7039;52.168;9.866;2023-05-20T12:15:05;7.40;;;5.00;;
13933;SDS011;7039;52.168;9.866;2023-05-20T12:17:42;7.27;;;5.17;;
13933;SDS011;7039;52.168;9.866;2023-05-20T12:20:11;7.17;;;4.80;;
13933;SDS011;7039;52.168;9.866;2023-05-20T12:22:39;6.57;;;4.83;;
13933;SDS011;7039;52.168;9.866;2023-05-20T12:25:05;7.20;;;4.83;;
13933;SDS011;7039;52.168;9.866;2023-05-20T12:27:34;6.93;;;5.23;;
13933;SDS011;7039;52.168;9.866;2023-05-20T12:30:00;10.00;;;4.93;;
13933;SDS011;7039;52.168;9.866;2023-05-20T12:32:27;8.30;;;5.30;;
13933;SDS011;7039;52.168;9.866;2023-05-20T12:34:53;8.00;;;5.03;;
13933;SDS011;7039;52.168;9.866;2023-05-20T12:37:19;5.80;;;4.53;;
13933;SDS011;7039;52.168;9.866;2023-05-20T12:39:46;5.97;;;4.60;;
13933;SDS011;7039;52.168;9.866;2023-05-20T12:42:12;8.30;;;5.40;;
13933;SDS011;7039;52.168;9.866;2023-05-20T12:44:40;6.80;;;5.03;;
13933;SDS011;7039;52.168;9.866;2023-05-20T12:47:07;10.63;;;5.23;;
13933;SDS011;7039;52.168;9.866;2023-05-20T12:49:34;12.67;;;4.80;;
13933;SDS011;7039;52.168;9.866;2023-05-20T12:52:00;7.40;;;4.90;;
13933;SDS011;7039;52.168;9.866;2023-05-20T12:54:27;6.20;;;4.80;;
13933;SDS011;7039;52.168;9.866;2023-05-20T12:56:53;7.03;;;5.10;;
13933;SDS011;7039;52.168;9.866;2023-05-20T12:59:20;6.63;;;4.80;;
13933;SDS011;7039;52.168;9.866;2023-05-20T13:01:48;8.90;;;5.10;;
13933;SDS011;7039;52.168;9.866;2023-05-20T13:04:14;9.43;;;5.17;;
13933;SDS011;7039;52.168;9.866;2023-05-20T13:06:41;9.00;;;5.37;;
13933;SDS011;7039;52.168;9.866;2023-05-20T13:09:08;8.57;;;5.67;;
13933;SDS011;7039;52.168;9.866;2023-05-20T13:11:34;11.33;;;5.07;;
13933;SDS011;7039;52.168;9.866;2023-05-20T13:14:01;6.90;;;5.07;;
13933;SDS011;7039;52.168;9.866;2023-05-20T13:16:27;7.00;;;4.83;;
13933;SDS011;7039;52.168;9.866;2023-05-20T13:18:55;8.30;;;4.60;;
13933;SDS011;7039;52.168;9.866;2023-05-20T13:21:22;6.37;;;5.00;;
13933;SDS011;7039;52.168;9.866;2023-05-20T13:23:48;7.23;;;4.57;;
13933;SDS011;7039;52.168;9.866;2023-05-20T13:26:15;5.87;;;5.27;;
13933;SDS011;7039;52.168;9.866;2023-05-20T13:28:41;7.80;;;5.40;;
13933;SDS011;7039;52.168;9.866;2023-05-20T13:31:08;7.23;;;5.10;;
13933;SDS011;7039;52.168;9.866;2023-05-20T13:33:34;7.40;;;5.03;;
13933;SDS011;7039;52.168;9.866;2023-05-20T13:36:02;7.60;;;5.07;;
13933;SDS011;7039;52.168;9.866;2023-05-20T13:38:29;7.63;;;5.77;;
13933;SDS011;7039;52.168;9.866;2023-05-20T13:40:56;6.60;;;5.07;;
13933;SDS011;7039;52.168;9.866;2023-05-20T13:43:23;7.63;;;5.43;;
13933;SDS011;7039;52.168;9.866;2023-05-20T13:45:50;8.20;;;5.00;;
13933;SDS011;7039;52.168;9.866;2023-05-20T13:48:17;8.47;;;5.50;;
13933;SDS011;7039;52.168;9.866;2023-05-20T13:50:43;10.43;;;5.50;;
13933;SDS011;7039;52.168;9.866;2023-05-20T13:53:11;7.60;;;4.93;;
13933;SDS011;7039;52.168;9.866;2023-05-20T13:55:38;6.53;;;5.20;;
13933;SDS011;7039;52.168;9.866;2023-05-20T13:58:04;10.87;;;6.07;;
13933;SDS011;7039;52.168;9.866;2023-05-20T14:00:33;7.97;;;5.13;;
13933;SDS011;7039;52.168;9.866;2023-05-20T14:02:59;6.20;;;5.13;;
13933;SDS011;7039;52.168;9.866;2023-05-20T14:05:28;6.30;;;4.87;;
13933;SDS011;7039;52.168;9.866;2023-05-20T14:07:55;7.57;;;4.87;;
13933;SDS011;7039;52.168;9.866;2023-05-20T14:10:22;11.60;;;5.27;;
13933;SDS011;7039;52.168;9.866;2023-05-20T14:12:50;7.47;;;5.33;;
13933;SDS011;7039;52.168;9.866;2023-05-20T14:15:17;8.93;;;5.43;;
13933;SDS011;7039;52.168;9.866;2023-05-20T14:17:44;6.30;;;5.47;;
13933;SDS011;7039;52.168;9.866;2023-05-20T14:20:13;6.93;;;5.30;;
13933;SDS011;7039;52.168;9.866;2023-05-20T14:22:39;7.00;;;5.37;;
13933;SDS011;7039;52.168;9.866;2023-05-20T14:25:06;7.13;;;5.67;;
13933;SDS011;7039;52.168;9.866;2023-05-20T14:27:34;7.13;;;5.20;;
13933;SDS011;7039;52.168;9.866;2023-05-20T14:30:00;8.43;;;5.23;;
13933;SDS011;7039;52.168;9.866;2023-05-20T14:32:27;8.30;;;4.90;;
13933;SDS011;7039;52.168;9.866;2023-05-20T14:34:54;6.20;;;4.67;;
13933;SDS011;7039;52.168;9.866;2023-05-20T14:37:20;8.40;;;5.30;;
13933;SDS011;7039;52.168;9.866;2023-05-20T14:39:47;8.70;;;6.13;;
13933;SDS011;7039;52.168;9.866;2023-05-20T14:42:13;7.57;;;5.33;;
13933;SDS011;7039;52.168;9.866;2023-05-20T14:44:42;8.93;;;5.27;;
13933;SDS011;7039;52.168;9.866;2023-05-20T14:47:08;8.67;;;5.30;;
13933;SDS011;7039;52.168;9.866;2023-05-20T14:49:35;7.57;;;5.53;;
13933;SDS011;7039;52.168;9.866;2023-05-20T14:52:03;7.63;;;5.37;;
13933;SDS011;7039;52.168;9.866;2023-05-20T14:54:31;7.20;;;5.10;;
13933;SDS011;7039;52.168;9.866;2023-05-20T14:56:58;10.77;;;6.10;;
13933;SDS011;7039;52.168;9.866;2023-05-20T14:59:24;7.13;;;5.57;;
13933;SDS011;7039;52.168;9.866;2023-05-20T15:01:52;6.83;;;5.63;;
13933;SDS011;7039;52.168;9.866;2023-05-20T15:04:19;7.00;;;5.63;;